KLM54PR ESSA-EDDH
Flight info
| Callsign | KLM54PR |
|---|---|
| Flight time | 1h 15m |
| Altitude | 38000 |
| Route | NOSLI5C NOSLI N850 ABAMA DCT GIMRU T503 MICOS/N0392F280 N850 BOGMU BOGMU5A |
| Aircraft | A20N/M-SDE2E3FGHIJ1RWXY/LB1 |
Departure
| Time | 2026-05-05 15:17 |
|---|---|
| Airport | Stockholm-Arlanda Airport (ESSA) |
Arrival
| Time | 2026-05-05 16:32 |
|---|---|
| Airport | Hamburg Helmut Schmidt Airport (EDDH) |
| Time | Latitude | Longitude | Altitude | Speed | Heading |
|---|---|---|---|---|---|
| 2026-05-05 14:47 | 59.65032 | 17.92844 | 137 ft | 0 kts | 14° |
| 2026-05-05 14:58 | 59.65014 | 17.92836 | 137 ft | 3 kts | 14° |
| 2026-05-05 14:58 | 59.64992 | 17.92825 | 137 ft | 3 kts | 14° |
| 2026-05-05 14:58 | 59.64971 | 17.92814 | 137 ft | 3 kts | 13° |
| 2026-05-05 14:59 | 59.64958 | 17.92809 | 137 ft | 0 kts | 9° |
| 2026-05-05 15:04 | 59.64960 | 17.92806 | 137 ft | 1 kts | 351° |
| 2026-05-05 15:04 | 59.64970 | 17.92793 | 137 ft | 1 kts | 318° |
| 2026-05-05 15:04 | 59.64972 | 17.92769 | 137 ft | 2 kts | 275° |
| 2026-05-05 15:04 | 59.64971 | 17.92723 | 137 ft | 5 kts | 268° |
| 2026-05-05 15:05 | 59.64970 | 17.92538 | 137 ft | 9 kts | 269° |
| 2026-05-05 15:05 | 59.64969 | 17.92406 | 137 ft | 10 kts | 269° |
| 2026-05-05 15:05 | 59.65013 | 17.92325 | 137 ft | 9 kts | 349° |
| 2026-05-05 15:06 | 59.65082 | 17.92341 | 137 ft | 11 kts | 11° |
| 2026-05-05 15:06 | 59.65165 | 17.92372 | 137 ft | 13 kts | 11° |
| 2026-05-05 15:06 | 59.65264 | 17.92400 | 137 ft | 14 kts | 348° |
| 2026-05-05 15:06 | 59.65335 | 17.92280 | 138 ft | 13 kts | 337° |
| 2026-05-05 15:07 | 59.65421 | 17.92301 | 137 ft | 9 kts | 9° |
| 2026-05-05 15:07 | 59.65427 | 17.92302 | 138 ft | 1 kts | 4° |
| 2026-05-05 15:07 | 59.65444 | 17.92305 | 138 ft | 4 kts | 8° |
| 2026-05-05 15:07 | 59.65480 | 17.92316 | 138 ft | 7 kts | 9° |
| 2026-05-05 15:08 | 59.65536 | 17.92335 | 138 ft | 10 kts | 9° |
| 2026-05-05 15:08 | 59.65608 | 17.92364 | 137 ft | 11 kts | 12° |
| 2026-05-05 15:08 | 59.65645 | 17.92380 | 137 ft | 6 kts | 11° |
| 2026-05-05 15:08 | 59.65690 | 17.92406 | 137 ft | 7 kts | 37° |
| 2026-05-05 15:09 | 59.65683 | 17.92453 | 137 ft | 2 kts | 133° |
| 2026-05-05 15:09 | 59.65659 | 17.92462 | 137 ft | 5 kts | 168° |
| 2026-05-05 15:09 | 59.65614 | 17.92487 | 137 ft | 8 kts | 164° |
| 2026-05-05 15:09 | 59.65558 | 17.92518 | 137 ft | 7 kts | 164° |
| 2026-05-05 15:10 | 59.65512 | 17.92499 | 137 ft | 8 kts | 213° |
| 2026-05-05 15:10 | 59.65470 | 17.92421 | 137 ft | 9 kts | 220° |
| 2026-05-05 15:10 | 59.65415 | 17.92329 | 137 ft | 11 kts | 223° |
| 2026-05-05 15:10 | 59.65341 | 17.92270 | 138 ft | 13 kts | 190° |
| 2026-05-05 15:11 | 59.65248 | 17.92236 | 138 ft | 15 kts | 190° |
| 2026-05-05 15:11 | 59.65141 | 17.92197 | 138 ft | 17 kts | 191° |
| 2026-05-05 15:11 | 59.65023 | 17.92152 | 138 ft | 18 kts | 191° |
| 2026-05-05 15:11 | 59.64892 | 17.92097 | 138 ft | 20 kts | 192° |
| 2026-05-05 15:12 | 59.64752 | 17.92033 | 138 ft | 21 kts | 194° |
| 2026-05-05 15:12 | 59.64605 | 17.91958 | 138 ft | 22 kts | 195° |
| 2026-05-05 15:12 | 59.64470 | 17.91937 | 137 ft | 19 kts | 176° |
| 2026-05-05 15:12 | 59.64332 | 17.91904 | 137 ft | 21 kts | 189° |
| 2026-05-05 15:13 | 59.64187 | 17.91848 | 137 ft | 22 kts | 191° |
| 2026-05-05 15:13 | 59.64032 | 17.91797 | 137 ft | 23 kts | 190° |
| 2026-05-05 15:13 | 59.63874 | 17.91735 | 137 ft | 22 kts | 193° |
| 2026-05-05 15:13 | 59.63806 | 17.91651 | 138 ft | 9 kts | 223° |
| 2026-05-05 15:14 | 59.63778 | 17.91600 | 138 ft | 0 kts | 222° |
| 2026-05-05 15:14 | 59.63773 | 17.91591 | 138 ft | 2 kts | 222° |
| 2026-05-05 15:15 | 59.63757 | 17.91564 | 139 ft | 4 kts | 221° |
| 2026-05-05 15:15 | 59.63733 | 17.91520 | 139 ft | 5 kts | 229° |
| 2026-05-05 15:15 | 59.63727 | 17.91448 | 142 ft | 6 kts | 279° |
| 2026-05-05 15:15 | 59.63737 | 17.91385 | 146 ft | 6 kts | 289° |
| 2026-05-05 15:16 | 59.63792 | 17.91346 | 145 ft | 10 kts | 12° |
| 2026-05-05 15:16 | 59.63825 | 17.91358 | 145 ft | 12 kts | 9° |
| 2026-05-05 15:16 | 59.64208 | 17.91487 | 141 ft | 97 kts | 10° |
| 2026-05-05 15:16 | 59.65095 | 17.91817 | 142 ft | 160 kts | 9° |
| 2026-05-05 15:17 | 59.66282 | 17.92249 | 503 ft | 186 kts | 7° |
| 2026-05-05 15:17 | 59.67540 | 17.92716 | 1539 ft | 177 kts | 6° |
| 2026-05-05 15:17 | 59.68778 | 17.93181 | 2412 ft | 189 kts | 6° |
| 2026-05-05 15:17 | 59.70130 | 17.93445 | 3156 ft | 199 kts | 350° |
| 2026-05-05 15:18 | 59.71437 | 17.92721 | 3955 ft | 201 kts | 328° |
| 2026-05-05 15:18 | 59.72505 | 17.90945 | 4474 ft | 204 kts | 303° |
| 2026-05-05 15:18 | 59.73005 | 17.88315 | 5027 ft | 208 kts | 274° |
| 2026-05-05 15:18 | 59.72818 | 17.85517 | 6054 ft | 204 kts | 250° |
| 2026-05-05 15:19 | 59.72039 | 17.83146 | 6866 ft | 212 kts | 224° |
| 2026-05-05 15:19 | 59.70861 | 17.81311 | 7621 ft | 222 kts | 213° |
| 2026-05-05 15:19 | 59.69401 | 17.79883 | 8094 ft | 244 kts | 207° |
| 2026-05-05 15:19 | 59.67772 | 17.78460 | 8568 ft | 265 kts | 206° |
| 2026-05-05 15:20 | 59.66051 | 17.76985 | 9334 ft | 273 kts | 206° |
| 2026-05-05 15:20 | 59.64304 | 17.75478 | 10229 ft | 275 kts | 206° |
| 2026-05-05 15:20 | 59.62497 | 17.73899 | 10686 ft | 295 kts | 207° |
| 2026-05-05 15:20 | 59.60554 | 17.72182 | 10997 ft | 316 kts | 207° |
| 2026-05-05 15:21 | 59.58522 | 17.70387 | 11694 ft | 322 kts | 208° |
| 2026-05-05 15:21 | 59.56463 | 17.68580 | 12587 ft | 324 kts | 208° |
| 2026-05-05 15:21 | 59.54401 | 17.66775 | 13480 ft | 323 kts | 210° |
| 2026-05-05 15:21 | 59.52368 | 17.64999 | 14218 ft | 328 kts | 211° |
| 2026-05-05 15:22 | 59.49189 | 17.62182 | 14519 ft | 354 kts | 211° |
| 2026-05-05 15:22 | 59.44478 | 17.58036 | 14876 ft | 387 kts | 210° |
| 2026-05-05 15:22 | 59.39470 | 17.53680 | 16013 ft | 392 kts | 210° |
| 2026-05-05 15:22 | 59.35743 | 17.50449 | 16973 ft | 392 kts | 211° |
| 2026-05-05 15:23 | 59.33196 | 17.48236 | 17615 ft | 393 kts | 211° |
| 2026-05-05 15:23 | 59.30631 | 17.46007 | 18185 ft | 393 kts | 211° |
| 2026-05-05 15:23 | 59.28122 | 17.43825 | 18530 ft | 397 kts | 211° |
| 2026-05-05 15:23 | 59.25574 | 17.41606 | 18834 ft | 404 kts | 211° |
| 2026-05-05 15:24 | 59.23026 | 17.39397 | 19275 ft | 406 kts | 211° |
| 2026-05-05 15:24 | 59.20435 | 17.37158 | 19694 ft | 409 kts | 211° |
| 2026-05-05 15:24 | 59.17785 | 17.34874 | 20099 ft | 411 kts | 211° |
| 2026-05-05 15:24 | 59.15120 | 17.32580 | 20475 ft | 413 kts | 211° |
| 2026-05-05 15:25 | 59.12474 | 17.30306 | 20819 ft | 416 kts | 211° |
| 2026-05-05 15:25 | 59.09830 | 17.27985 | 21177 ft | 415 kts | 213° |
| 2026-05-05 15:25 | 59.07307 | 17.25286 | 21509 ft | 412 kts | 218° |
| 2026-05-05 15:25 | 59.04949 | 17.22140 | 21821 ft | 410 kts | 223° |
| 2026-05-05 15:26 | 59.02748 | 17.18631 | 22058 ft | 410 kts | 225° |
| 2026-05-05 15:26 | 59.00542 | 17.15014 | 22353 ft | 414 kts | 225° |
| 2026-05-05 15:26 | 58.98326 | 17.11405 | 22713 ft | 417 kts | 225° |
| 2026-05-05 15:26 | 58.96096 | 17.07798 | 23047 ft | 418 kts | 225° |
| 2026-05-05 15:27 | 58.93854 | 17.04193 | 23341 ft | 421 kts | 224° |
| 2026-05-05 15:27 | 58.91618 | 17.00610 | 23596 ft | 422 kts | 224° |
| 2026-05-05 15:27 | 58.89352 | 16.96988 | 23835 ft | 423 kts | 224° |
| 2026-05-05 15:27 | 58.87077 | 16.93356 | 24068 ft | 425 kts | 224° |
| 2026-05-05 15:28 | 58.84788 | 16.89710 | 24312 ft | 426 kts | 224° |
| 2026-05-05 15:28 | 58.82498 | 16.86069 | 24558 ft | 426 kts | 224° |
| 2026-05-05 15:28 | 58.80211 | 16.82439 | 24793 ft | 426 kts | 224° |
| 2026-05-05 15:28 | 58.77921 | 16.78807 | 24988 ft | 426 kts | 224° |
| 2026-05-05 15:29 | 58.75629 | 16.75180 | 25241 ft | 427 kts | 224° |
| 2026-05-05 15:29 | 58.73359 | 16.71594 | 25497 ft | 427 kts | 224° |
| 2026-05-05 15:29 | 58.71066 | 16.67979 | 25745 ft | 426 kts | 224° |
| 2026-05-05 15:29 | 58.68770 | 16.64364 | 26004 ft | 426 kts | 224° |
| 2026-05-05 15:30 | 58.66481 | 16.60768 | 26257 ft | 425 kts | 224° |
| 2026-05-05 15:30 | 58.64189 | 16.57173 | 26519 ft | 425 kts | 224° |
| 2026-05-05 15:30 | 58.61898 | 16.53584 | 26778 ft | 424 kts | 224° |
| 2026-05-05 15:30 | 58.59613 | 16.50012 | 27040 ft | 423 kts | 224° |
| 2026-05-05 15:31 | 58.57333 | 16.46456 | 27327 ft | 422 kts | 224° |
| 2026-05-05 15:31 | 58.55055 | 16.42908 | 27592 ft | 421 kts | 224° |
| 2026-05-05 15:31 | 58.52783 | 16.39372 | 27820 ft | 421 kts | 224° |
| 2026-05-05 15:31 | 58.50509 | 16.35841 | 28099 ft | 421 kts | 224° |
| 2026-05-05 15:32 | 58.48238 | 16.32320 | 28345 ft | 420 kts | 224° |
| 2026-05-05 15:32 | 58.45966 | 16.28805 | 28627 ft | 419 kts | 224° |
| 2026-05-05 15:32 | 58.43713 | 16.25326 | 28912 ft | 418 kts | 224° |
| 2026-05-05 15:32 | 58.41476 | 16.21878 | 29191 ft | 418 kts | 224° |
| 2026-05-05 15:33 | 58.39215 | 16.18399 | 29475 ft | 417 kts | 224° |
| 2026-05-05 15:33 | 58.36958 | 16.14930 | 29769 ft | 416 kts | 224° |
| 2026-05-05 15:33 | 58.34698 | 16.11464 | 30050 ft | 416 kts | 224° |
| 2026-05-05 15:33 | 58.32444 | 16.08012 | 30268 ft | 415 kts | 224° |
| 2026-05-05 15:34 | 58.30198 | 16.04578 | 30466 ft | 415 kts | 224° |
| 2026-05-05 15:34 | 58.27939 | 16.01127 | 30722 ft | 416 kts | 224° |
| 2026-05-05 15:34 | 58.25681 | 15.97684 | 30973 ft | 417 kts | 224° |
| 2026-05-05 15:34 | 58.23419 | 15.94243 | 31223 ft | 416 kts | 224° |
| 2026-05-05 15:35 | 58.21161 | 15.90816 | 31481 ft | 415 kts | 224° |
| 2026-05-05 15:35 | 58.18907 | 15.87400 | 31737 ft | 414 kts | 224° |
| 2026-05-05 15:35 | 58.16653 | 15.83989 | 31998 ft | 414 kts | 224° |
| 2026-05-05 15:35 | 58.14433 | 15.80635 | 32252 ft | 413 kts | 223° |
| 2026-05-05 15:36 | 58.12183 | 15.77241 | 32515 ft | 413 kts | 223° |
| 2026-05-05 15:36 | 58.09939 | 15.73863 | 32781 ft | 412 kts | 223° |
| 2026-05-05 15:36 | 58.07698 | 15.70494 | 33052 ft | 411 kts | 223° |
| 2026-05-05 15:36 | 58.05454 | 15.67125 | 33257 ft | 411 kts | 223° |
| 2026-05-05 15:37 | 58.03213 | 15.63767 | 33538 ft | 410 kts | 223° |
| 2026-05-05 15:37 | 58.00972 | 15.60414 | 33818 ft | 410 kts | 223° |
| 2026-05-05 15:37 | 57.98740 | 15.57080 | 34061 ft | 409 kts | 223° |
| 2026-05-05 15:37 | 57.96485 | 15.53814 | 34296 ft | 409 kts | 221° |
| 2026-05-05 15:38 | 57.94182 | 15.50649 | 34535 ft | 410 kts | 221° |
| 2026-05-05 15:38 | 57.91898 | 15.47544 | 34773 ft | 409 kts | 221° |
| 2026-05-05 15:38 | 57.89592 | 15.44397 | 35021 ft | 409 kts | 221° |
| 2026-05-05 15:38 | 57.87299 | 15.41252 | 35255 ft | 408 kts | 221° |
| 2026-05-05 15:39 | 57.85008 | 15.38099 | 35496 ft | 408 kts | 221° |
| 2026-05-05 15:39 | 57.82722 | 15.34953 | 35775 ft | 407 kts | 221° |
| 2026-05-05 15:39 | 57.80445 | 15.31820 | 36033 ft | 406 kts | 221° |
| 2026-05-05 15:39 | 57.78172 | 15.28698 | 36278 ft | 404 kts | 221° |
| 2026-05-05 15:40 | 57.75898 | 15.25583 | 36536 ft | 403 kts | 221° |
| 2026-05-05 15:40 | 57.73635 | 15.22489 | 36794 ft | 401 kts | 220° |
| 2026-05-05 15:40 | 57.71409 | 15.19451 | 37056 ft | 399 kts | 220° |
| 2026-05-05 15:40 | 57.69194 | 15.16434 | 37314 ft | 397 kts | 220° |
| 2026-05-05 15:41 | 57.66967 | 15.13406 | 37581 ft | 395 kts | 220° |
| 2026-05-05 15:41 | 57.64751 | 15.10396 | 37819 ft | 393 kts | 220° |
| 2026-05-05 15:41 | 57.62531 | 15.07384 | 37883 ft | 396 kts | 220° |
| 2026-05-05 15:42 | 57.58030 | 15.01289 | 37839 ft | 402 kts | 220° |
| 2026-05-05 15:42 | 57.53463 | 14.95130 | 37881 ft | 408 kts | 220° |
| 2026-05-05 15:43 | 57.42561 | 14.80503 | 37881 ft | 424 kts | 220° |
| 2026-05-05 15:43 | 57.23224 | 14.54842 | 37898 ft | 427 kts | 219° |
| 2026-05-05 15:44 | 57.11510 | 14.39459 | 37887 ft | 427 kts | 219° |
| 2026-05-05 15:44 | 57.01782 | 14.26774 | 37904 ft | 429 kts | 219° |
| 2026-05-05 15:45 | 56.92031 | 14.14145 | 37895 ft | 429 kts | 219° |
| 2026-05-05 15:45 | 56.82257 | 14.01564 | 37901 ft | 430 kts | 219° |
| 2026-05-05 15:46 | 56.72520 | 13.89117 | 37894 ft | 430 kts | 218° |
| 2026-05-05 15:46 | 56.62704 | 13.76646 | 37906 ft | 430 kts | 218° |
| 2026-05-05 15:47 | 56.52849 | 13.64207 | 37906 ft | 430 kts | 218° |
| 2026-05-05 15:47 | 56.43006 | 13.51863 | 37909 ft | 431 kts | 218° |
| 2026-05-05 15:48 | 56.33146 | 13.39575 | 37925 ft | 431 kts | 218° |
| 2026-05-05 15:48 | 56.23264 | 13.27341 | 37936 ft | 431 kts | 218° |
| 2026-05-05 15:49 | 56.13422 | 13.15233 | 37907 ft | 431 kts | 217° |
| 2026-05-05 15:49 | 56.03508 | 13.03114 | 37938 ft | 431 kts | 217° |
| 2026-05-05 15:50 | 55.93563 | 12.91033 | 37933 ft | 431 kts | 217° |
| 2026-05-05 15:50 | 55.85301 | 12.81053 | 37934 ft | 431 kts | 217° |
| 2026-05-05 15:51 | 55.75355 | 12.69110 | 37939 ft | 431 kts | 217° |
| 2026-05-05 15:51 | 55.65394 | 12.57224 | 37911 ft | 432 kts | 217° |
| 2026-05-05 15:52 | 55.55382 | 12.45350 | 37938 ft | 432 kts | 217° |
| 2026-05-05 15:52 | 55.45450 | 12.33644 | 37925 ft | 432 kts | 217° |
| 2026-05-05 15:53 | 55.35424 | 12.21901 | 37933 ft | 432 kts | 216° |
| 2026-05-05 15:53 | 55.25389 | 12.10221 | 37936 ft | 432 kts | 216° |
| 2026-05-05 15:54 | 55.15338 | 11.98591 | 37920 ft | 434 kts | 216° |
| 2026-05-05 15:54 | 55.05242 | 11.86983 | 37919 ft | 434 kts | 216° |
| 2026-05-05 15:55 | 54.95133 | 11.75430 | 37891 ft | 434 kts | 216° |
| 2026-05-05 15:55 | 54.85023 | 11.63948 | 37924 ft | 434 kts | 216° |
| 2026-05-05 15:56 | 54.74893 | 11.52511 | 37918 ft | 434 kts | 216° |
| 2026-05-05 15:56 | 54.63345 | 11.39549 | 37917 ft | 433 kts | 216° |
| 2026-05-05 15:57 | 54.43455 | 11.16114 | 37901 ft | 430 kts | 218° |
| 2026-05-05 15:57 | 54.25590 | 10.89526 | 37912 ft | 425 kts | 234° |
| 2026-05-05 15:58 | 54.18253 | 10.73287 | 37626 ft | 404 kts | 233° |
| 2026-05-05 15:58 | 54.14830 | 10.65762 | 36499 ft | 398 kts | 234° |
| 2026-05-05 15:58 | 54.08841 | 10.52649 | 34381 ft | 391 kts | 233° |
| 2026-05-05 15:58 | 54.04687 | 10.43601 | 32564 ft | 390 kts | 234° |
| 2026-05-05 15:59 | 54.01250 | 10.36484 | 30669 ft | 392 kts | 225° |
| 2026-05-05 15:59 | 53.96480 | 10.31819 | 28350 ft | 403 kts | 201° |
| 2026-05-05 15:59 | 53.90904 | 10.30760 | 26692 ft | 394 kts | 194° |
| 2026-05-05 15:59 | 53.86403 | 10.27367 | 26278 ft | 335 kts | 227° |
| 2026-05-05 16:00 | 53.84630 | 10.20852 | 25943 ft | 295 kts | 270° |
| 2026-05-05 16:00 | 53.86345 | 10.14708 | 25207 ft | 307 kts | 315° |
| 2026-05-05 16:00 | 53.90510 | 10.12659 | 24355 ft | 333 kts | 2° |
| 2026-05-05 16:00 | 53.94644 | 10.16320 | 23592 ft | 345 kts | 40° |
| 2026-05-05 16:01 | 53.97917 | 10.22205 | 22813 ft | 339 kts | 39° |
| 2026-05-05 16:01 | 54.01468 | 10.27285 | 22027 ft | 334 kts | 46° |
| 2026-05-05 16:01 | 54.04055 | 10.33837 | 21252 ft | 333 kts | 66° |
| 2026-05-05 16:01 | 54.04187 | 10.41429 | 20406 ft | 322 kts | 117° |
| 2026-05-05 16:02 | 54.01233 | 10.46459 | 19554 ft | 295 kts | 168° |
| 2026-05-05 16:02 | 53.97505 | 10.45804 | 18720 ft | 266 kts | 220° |
| 2026-05-05 16:02 | 53.95924 | 10.40617 | 17850 ft | 255 kts | 271° |
| 2026-05-05 16:02 | 53.96427 | 10.34674 | 17056 ft | 253 kts | 279° |
| 2026-05-05 16:03 | 53.96808 | 10.28872 | 16283 ft | 250 kts | 270° |
| 2026-05-05 16:03 | 53.98076 | 10.23453 | 15455 ft | 258 kts | 313° |
| 2026-05-05 16:03 | 54.01516 | 10.21767 | 14633 ft | 277 kts | 9° |
| 2026-05-05 16:03 | 54.04494 | 10.25782 | 13882 ft | 286 kts | 66° |
| 2026-05-05 16:04 | 54.04401 | 10.32217 | 13081 ft | 276 kts | 123° |
| 2026-05-05 16:04 | 54.01446 | 10.35582 | 12266 ft | 256 kts | 181° |
| 2026-05-05 16:04 | 53.98494 | 10.33199 | 11466 ft | 240 kts | 240° |
| 2026-05-05 16:04 | 53.97541 | 10.27833 | 10711 ft | 239 kts | 263° |
| 2026-05-05 16:05 | 53.95761 | 10.22998 | 9281 ft | 267 kts | 212° |
| 2026-05-05 16:05 | 53.91898 | 10.22715 | 8162 ft | 285 kts | 157° |
| 2026-05-05 16:05 | 53.86201 | 10.31803 | 6620 ft | 280 kts | 154° |
| 2026-05-05 16:05 | 53.79687 | 10.34983 | 4855 ft | 275 kts | 169° |
| 2026-05-05 16:06 | 53.77693 | 10.35607 | 4534 ft | 271 kts | 169° |
| 2026-05-05 16:06 | 53.75861 | 10.36175 | 4227 ft | 266 kts | 169° |
| 2026-05-05 16:06 | 53.72186 | 10.37060 | 4019 ft | 274 kts | 186° |
| 2026-05-05 16:06 | 53.68622 | 10.32901 | 3996 ft | 269 kts | 233° |
| 2026-05-05 16:07 | 53.67506 | 10.30388 | 4001 ft | 271 kts | 234° |
| 2026-05-05 16:07 | 53.66379 | 10.27829 | 4003 ft | 271 kts | 233° |
| 2026-05-05 16:07 | 53.65225 | 10.25310 | 4005 ft | 271 kts | 232° |
| 2026-05-05 16:07 | 53.64051 | 10.22842 | 4003 ft | 271 kts | 232° |
| 2026-05-05 16:08 | 53.62842 | 10.20352 | 4008 ft | 276 kts | 231° |
| 2026-05-05 16:08 | 53.61632 | 10.17886 | 4004 ft | 270 kts | 231° |
| 2026-05-05 16:08 | 53.60429 | 10.15439 | 4010 ft | 271 kts | 231° |
| 2026-05-05 16:08 | 53.59228 | 10.13005 | 4005 ft | 270 kts | 231° |
| 2026-05-05 16:09 | 53.58035 | 10.10596 | 4010 ft | 273 kts | 229° |
| 2026-05-05 16:09 | 53.56535 | 10.08710 | 4013 ft | 271 kts | 202° |
| 2026-05-05 16:09 | 53.54726 | 10.08016 | 4002 ft | 261 kts | 192° |
| 2026-05-05 16:09 | 53.53160 | 10.06749 | 4003 ft | 244 kts | 223° |
| 2026-05-05 16:10 | 53.52262 | 10.04504 | 4004 ft | 229 kts | 256° |
| 2026-05-05 16:10 | 53.52221 | 10.01831 | 4006 ft | 230 kts | 289° |
| 2026-05-05 16:10 | 53.53027 | 9.99581 | 4008 ft | 225 kts | 321° |
| 2026-05-05 16:10 | 53.54412 | 9.98473 | 4009 ft | 222 kts | 354° |
| 2026-05-05 16:11 | 53.55917 | 9.98844 | 4009 ft | 221 kts | 27° |
| 2026-05-05 16:11 | 53.58918 | 10.04593 | 4007 ft | 219 kts | 56° |
| 2026-05-05 16:12 | 53.59852 | 10.06574 | 4006 ft | 216 kts | 45° |
| 2026-05-05 16:12 | 53.61913 | 10.10387 | 4011 ft | 221 kts | 49° |
| 2026-05-05 16:13 | 53.63209 | 10.17266 | 4008 ft | 227 kts | 117° |
| 2026-05-05 16:13 | 53.62134 | 10.19212 | 4007 ft | 231 kts | 149° |
| 2026-05-05 16:13 | 53.60574 | 10.19896 | 4003 ft | 236 kts | 182° |
| 2026-05-05 16:14 | 53.57916 | 10.17147 | 4008 ft | 234 kts | 238° |
| 2026-05-05 16:14 | 53.56209 | 10.12491 | 4001 ft | 232 kts | 251° |
| 2026-05-05 16:15 | 53.54953 | 10.07423 | 4004 ft | 234 kts | 242° |
| 2026-05-05 16:15 | 53.54745 | 10.02179 | 4000 ft | 232 kts | 271° |
| 2026-05-05 16:16 | 53.53234 | 9.97441 | 4013 ft | 260 kts | 226° |
| 2026-05-05 16:16 | 53.50521 | 9.93111 | 4009 ft | 271 kts | 223° |
| 2026-05-05 16:17 | 53.47717 | 9.88840 | 4005 ft | 270 kts | 223° |
| 2026-05-05 16:17 | 53.46322 | 9.86696 | 4008 ft | 272 kts | 223° |
| 2026-05-05 16:18 | 53.43844 | 9.81967 | 4008 ft | 272 kts | 231° |
| 2026-05-05 16:18 | 53.42632 | 9.79529 | 3990 ft | 271 kts | 231° |
| 2026-05-05 16:18 | 53.40220 | 9.74694 | 3988 ft | 271 kts | 230° |
| 2026-05-05 16:19 | 53.39003 | 9.72268 | 3987 ft | 271 kts | 231° |
| 2026-05-05 16:19 | 53.37795 | 9.69860 | 3988 ft | 269 kts | 230° |
| 2026-05-05 16:19 | 53.35367 | 9.65025 | 3991 ft | 272 kts | 230° |
| 2026-05-05 16:20 | 53.32925 | 9.60162 | 3984 ft | 270 kts | 230° |
| 2026-05-05 16:20 | 53.30585 | 9.55202 | 3983 ft | 271 kts | 245° |
| 2026-05-05 16:21 | 53.30662 | 9.49199 | 3982 ft | 262 kts | 302° |
| 2026-05-05 16:22 | 53.34810 | 9.48374 | 3991 ft | 231 kts | 40° |
| 2026-05-05 16:22 | 53.37103 | 9.51814 | 3987 ft | 207 kts | 42° |
| 2026-05-05 16:23 | 53.39003 | 9.54730 | 3982 ft | 162 kts | 42° |
| 2026-05-05 16:23 | 53.39824 | 9.55978 | 3997 ft | 163 kts | 42° |
| 2026-05-05 16:23 | 53.41481 | 9.58553 | 3991 ft | 164 kts | 43° |
| 2026-05-05 16:24 | 53.42303 | 9.59867 | 3989 ft | 161 kts | 43° |
| 2026-05-05 16:24 | 53.43112 | 9.61184 | 3989 ft | 161 kts | 43° |
| 2026-05-05 16:24 | 53.44704 | 9.63833 | 4004 ft | 163 kts | 44° |
| 2026-05-05 16:25 | 53.45499 | 9.65188 | 4008 ft | 163 kts | 45° |
| 2026-05-05 16:25 | 53.47058 | 9.67901 | 4005 ft | 161 kts | 46° |
| 2026-05-05 16:25 | 53.47822 | 9.69256 | 4002 ft | 153 kts | 46° |
| 2026-05-05 16:26 | 53.49205 | 9.71742 | 3917 ft | 143 kts | 46° |
| 2026-05-05 16:26 | 53.50531 | 9.74170 | 3556 ft | 141 kts | 47° |
| 2026-05-05 16:27 | 53.51183 | 9.75383 | 3372 ft | 140 kts | 47° |
| 2026-05-05 16:27 | 53.51833 | 9.76604 | 3188 ft | 138 kts | 47° |
| 2026-05-05 16:27 | 53.52468 | 9.77807 | 3007 ft | 138 kts | 48° |
| 2026-05-05 16:27 | 53.53095 | 9.79006 | 2825 ft | 136 kts | 48° |
| 2026-05-05 16:28 | 53.53722 | 9.80213 | 2624 ft | 138 kts | 48° |
| 2026-05-05 16:28 | 53.54340 | 9.81412 | 2445 ft | 133 kts | 48° |
| 2026-05-05 16:28 | 53.54936 | 9.82574 | 2268 ft | 134 kts | 49° |
| 2026-05-05 16:28 | 53.55541 | 9.83762 | 2079 ft | 133 kts | 49° |
| 2026-05-05 16:29 | 53.56143 | 9.84947 | 1900 ft | 132 kts | 50° |
| 2026-05-05 16:29 | 53.56743 | 9.86121 | 1718 ft | 131 kts | 48° |
| 2026-05-05 16:29 | 53.57323 | 9.87254 | 1542 ft | 126 kts | 50° |
| 2026-05-05 16:29 | 53.57882 | 9.88384 | 1369 ft | 125 kts | 50° |
| 2026-05-05 16:30 | 53.58436 | 9.89505 | 1189 ft | 125 kts | 50° |
| 2026-05-05 16:30 | 53.58995 | 9.90634 | 1014 ft | 126 kts | 50° |
| 2026-05-05 16:30 | 53.59565 | 9.91787 | 825 ft | 127 kts | 50° |
| 2026-05-05 16:30 | 53.60118 | 9.92908 | 665 ft | 128 kts | 50° |
| 2026-05-05 16:31 | 53.60689 | 9.94061 | 484 ft | 126 kts | 51° |
| 2026-05-05 16:31 | 53.61255 | 9.95208 | 295 ft | 127 kts | 51° |
| 2026-05-05 16:31 | 53.61799 | 9.96310 | 105 ft | 116 kts | 52° |
| 2026-05-05 16:31 | 53.62275 | 9.97296 | 42 ft | 95 kts | 50° |
| 2026-05-05 16:32 | 53.62625 | 9.97995 | 42 ft | 64 kts | 50° |
| 2026-05-05 16:32 | 53.62883 | 9.98511 | 43 ft | 54 kts | 51° |
| 2026-05-05 16:32 | 53.63059 | 9.98884 | 44 ft | 28 kts | 57° |
| 2026-05-05 16:32 | 53.63091 | 9.99088 | 45 ft | 18 kts | 88° |
| 2026-05-05 16:33 | 53.63089 | 9.99159 | 44 ft | 0 kts | 94° |
| 2026-05-05 16:33 | 53.63088 | 9.99169 | 44 ft | 3 kts | 94° |
| 2026-05-05 16:33 | 53.63086 | 9.99217 | 44 ft | 6 kts | 94° |
| 2026-05-05 16:33 | 53.63083 | 9.99299 | 44 ft | 8 kts | 94° |
| 2026-05-05 16:34 | 53.63100 | 9.99399 | 45 ft | 10 kts | 65° |
| 2026-05-05 16:34 | 53.63138 | 9.99501 | 43 ft | 11 kts | 55° |
| 2026-05-05 16:34 | 53.63192 | 9.99618 | 44 ft | 8 kts | 50° |
| 2026-05-05 16:34 | 53.63217 | 9.99670 | 44 ft | 0 kts | 53° |
| 2026-05-05 16:36 | 53.63221 | 9.99675 | 44 ft | 2 kts | 42° |
| 2026-05-05 16:36 | 53.63237 | 9.99700 | 44 ft | 5 kts | 43° |
| 2026-05-05 16:37 | 53.63268 | 9.99748 | 44 ft | 7 kts | 41° |
| 2026-05-05 16:37 | 53.63308 | 9.99820 | 45 ft | 10 kts | 49° |
| 2026-05-05 16:37 | 53.63356 | 9.99918 | 45 ft | 12 kts | 51° |
| 2026-05-05 16:37 | 53.63412 | 10.00034 | 45 ft | 14 kts | 51° |
| 2026-05-05 16:38 | 53.63411 | 10.00173 | 43 ft | 12 kts | 120° |
| 2026-05-05 16:38 | 53.63340 | 10.00232 | 45 ft | 13 kts | 176° |
| 2026-05-05 16:38 | 53.63270 | 10.00240 | 45 ft | 10 kts | 176° |
| 2026-05-05 16:38 | 53.63222 | 10.00245 | 45 ft | 6 kts | 176° |
| 2026-05-05 16:39 | 53.63212 | 10.00249 | 45 ft | 3 kts | 163° |
| 2026-05-05 16:39 | 53.63202 | 10.00270 | 45 ft | 1 kts | 88° |
| 2026-05-05 16:39 | 53.63204 | 10.00288 | 45 ft | 3 kts | 82° |
| 2026-05-05 16:39 | 53.63207 | 10.00343 | 45 ft | 5 kts | 87° |
| 2026-05-05 16:40 | 53.63208 | 10.00362 | 45 ft | 0 kts | 86° |